createdAt,value
2022-10-03T00:00:38.753Z,20.27
2022-10-03T00:05:54.941Z,20.28
2022-10-03T00:11:10.520Z,20.31
2022-10-03T00:16:25.574Z,20.32
2022-10-03T00:21:40.925Z,20.32
2022-10-03T00:26:56.848Z,20.31
2022-10-03T00:32:12.493Z,20.31
2022-10-03T00:37:27.817Z,20.28
2022-10-03T00:42:43.577Z,20.24
2022-10-03T00:47:59.562Z,20.19
2022-10-03T00:53:14.466Z,20.22
2022-10-03T00:58:29.831Z,20.26
2022-10-03T01:03:45.493Z,20.23
2022-10-03T01:09:00.504Z,20.26
2022-10-03T01:14:15.489Z,20.21
2022-10-03T01:19:30.526Z,20.20
2022-10-03T01:24:45.788Z,20.20
2022-10-03T01:30:01.508Z,20.20
2022-10-03T01:35:16.554Z,20.19
2022-10-03T01:40:31.788Z,20.19
2022-10-03T01:45:47.463Z,20.19
2022-10-03T01:51:02.474Z,20.17
2022-10-03T01:56:18.052Z,20.17
2022-10-03T02:01:33.541Z,20.16
2022-10-03T02:06:48.493Z,20.15
2022-10-03T02:12:03.534Z,20.15
2022-10-03T02:17:18.783Z,20.14
2022-10-03T02:22:34.475Z,20.13
2022-10-03T02:27:49.583Z,20.12
2022-10-03T02:33:04.558Z,20.07
2022-10-03T02:38:19.472Z,20.04
2022-10-03T02:43:34.513Z,20.07
2022-10-03T02:48:49.489Z,20.05
2022-10-03T02:54:04.495Z,20.08
2022-10-03T02:59:19.539Z,20.04
2022-10-03T03:04:34.747Z,20.02
2022-10-03T03:09:50.517Z,20.02
2022-10-03T03:15:05.586Z,20.01
2022-10-03T03:20:20.533Z,20.00
2022-10-03T03:25:35.488Z,20.08
2022-10-03T03:30:51.814Z,20.06
2022-10-03T03:36:07.510Z,20.06
2022-10-03T03:41:22.563Z,20.00
2022-10-03T03:46:37.498Z,19.94
2022-10-03T03:51:52.784Z,19.89
2022-10-03T03:57:08.979Z,19.85
2022-10-03T04:02:24.545Z,19.80
2022-10-03T04:07:40.569Z,19.76
2022-10-03T04:12:55.522Z,19.73
2022-10-03T04:18:10.919Z,19.69
2022-10-03T04:23:26.488Z,19.66
2022-10-03T04:28:41.913Z,19.63
2022-10-03T04:33:57.912Z,19.59
2022-10-03T04:39:13.873Z,19.58
2022-10-03T04:44:29.856Z,19.55
2022-10-03T04:49:45.520Z,19.54
2022-10-03T04:55:00.515Z,19.51
2022-10-03T05:00:15.807Z,19.48
2022-10-03T05:05:31.503Z,19.46
2022-10-03T05:10:46.491Z,19.44
2022-10-03T05:16:01.504Z,19.42
2022-10-03T05:21:16.487Z,19.40
2022-10-03T05:26:46.827Z,19.36
2022-10-03T05:32:02.559Z,19.35
2022-10-03T05:37:17.513Z,19.33
2022-10-03T05:42:32.575Z,19.30
2022-10-03T05:47:47.775Z,19.30
2022-10-03T05:53:03.509Z,19.27
2022-10-03T05:58:18.570Z,19.26
2022-10-03T06:03:33.542Z,19.25
2022-10-03T06:08:48.586Z,19.22
2022-10-03T06:14:04.548Z,19.22
2022-10-03T06:19:20.184Z,19.20
2022-10-03T06:24:35.521Z,19.18
2022-10-03T06:29:50.853Z,19.17
2022-10-03T06:35:06.615Z,19.16
2022-10-03T06:40:21.929Z,19.16
2022-10-03T06:45:37.496Z,19.15
2022-10-03T06:50:52.987Z,19.13
2022-10-03T06:56:08.829Z,19.11
2022-10-03T07:01:24.994Z,19.11
2022-10-03T07:06:40.834Z,19.10
2022-10-03T07:11:56.508Z,19.10
2022-10-03T07:17:11.639Z,19.09
2022-10-03T07:22:26.362Z,19.08
2022-10-03T07:27:41.557Z,19.07
2022-10-03T07:32:56.572Z,19.06
2022-10-03T07:38:11.517Z,19.06
2022-10-03T07:43:26.509Z,19.05
2022-10-03T07:48:41.553Z,19.05
2022-10-03T07:53:56.517Z,19.06
2022-10-03T07:59:11.914Z,19.04
2022-10-03T08:04:27.614Z,19.04
2022-10-03T08:09:42.558Z,19.04
2022-10-03T08:14:57.580Z,19.02
2022-10-03T08:20:12.824Z,19.01
2022-10-03T08:25:28.525Z,19.02
2022-10-03T08:30:43.542Z,19.02
2022-10-03T08:35:58.521Z,19.02
2022-10-03T08:41:13.530Z,19.01
2022-10-03T08:46:28.672Z,19.02
2022-10-03T08:51:43.535Z,19.03
2022-10-03T08:56:58.523Z,19.02
2022-10-03T09:02:13.924Z,19.02
2022-10-03T09:07:30.476Z,19.02
2022-10-03T09:12:45.533Z,19.01
2022-10-03T09:18:00.674Z,19.00
2022-10-03T09:23:15.529Z,19.01
2022-10-03T09:28:30.533Z,19.01
2022-10-03T09:33:45.594Z,19.01
2022-10-03T09:39:00.536Z,19.02
2022-10-03T09:44:15.596Z,19.02
2022-10-03T09:49:31.032Z,19.02
2022-10-03T09:54:46.546Z,19.03
2022-10-03T10:00:01.562Z,19.03
2022-10-03T10:05:20.520Z,19.04
2022-10-03T10:10:35.521Z,19.05
2022-10-03T10:15:50.609Z,19.05
2022-10-03T10:21:05.524Z,19.05
2022-10-03T10:26:20.552Z,19.06
2022-10-03T10:31:35.617Z,19.06
2022-10-03T10:36:50.581Z,19.07
2022-10-03T10:42:05.887Z,19.08
2022-10-03T10:47:21.515Z,19.10
2022-10-03T10:52:36.538Z,19.11
2022-10-03T10:57:51.550Z,19.13
2022-10-03T11:03:06.528Z,19.11
2022-10-03T11:08:21.646Z,19.13
2022-10-03T11:13:36.935Z,19.15
2022-10-03T11:18:52.533Z,19.17
2022-10-03T11:24:07.828Z,19.17
2022-10-03T11:29:23.572Z,19.18
2022-10-03T11:34:38.580Z,19.19
2022-10-03T11:39:53.629Z,19.19
2022-10-03T11:45:08.520Z,19.20
2022-10-03T11:50:23.370Z,19.19
2022-10-03T11:55:38.886Z,19.22
2022-10-03T12:00:54.551Z,19.22
2022-10-03T12:06:09.563Z,19.22
2022-10-03T12:11:24.829Z,19.21
2022-10-03T12:16:40.581Z,19.20
2022-10-03T12:21:55.583Z,19.19
2022-10-03T12:27:10.567Z,19.18
2022-10-03T12:32:25.366Z,19.20
2022-10-03T12:37:40.554Z,19.22
2022-10-03T12:42:55.827Z,19.23
2022-10-03T12:48:11.546Z,19.23
2022-10-03T12:53:26.817Z,19.23
2022-10-03T12:58:42.575Z,19.23
2022-10-03T13:03:57.872Z,19.24
2022-10-03T13:09:14.565Z,19.27
2022-10-03T13:14:29.544Z,19.27
2022-10-03T13:19:44.528Z,19.28
2022-10-03T13:25:00.577Z,19.31
2022-10-03T13:30:15.613Z,19.30
2022-10-03T13:35:30.959Z,19.29
2022-10-03T13:40:46.334Z,19.32
2022-10-03T13:46:02.473Z,19.32
2022-10-03T13:51:17.338Z,19.33
2022-10-03T13:56:32.555Z,19.33
2022-10-03T14:01:47.576Z,19.34
2022-10-03T14:07:02.291Z,19.35
2022-10-03T14:12:24.814Z,19.36
2022-10-03T14:17:52.582Z,19.37
2022-10-03T14:23:07.597Z,19.37
2022-10-03T14:28:22.753Z,19.38
2022-10-03T14:33:37.570Z,19.38
2022-10-03T14:38:52.864Z,19.38
2022-10-03T14:44:13.381Z,19.38
2022-10-03T14:55:03.560Z,19.39
2022-10-03T15:00:18.852Z,19.39
2022-10-03T15:05:34.892Z,19.39
2022-10-03T15:10:50.547Z,19.40
2022-10-03T15:16:05.445Z,19.41
2022-10-03T15:21:20.613Z,19.41
2022-10-03T15:26:35.634Z,19.41
2022-10-03T15:31:50.607Z,19.41
2022-10-03T15:37:05.589Z,19.41
2022-10-03T15:42:20.607Z,19.42
2022-10-03T15:47:35.360Z,19.42
2022-10-03T15:52:50.964Z,19.42
2022-10-03T15:58:06.540Z,19.43
2022-10-03T16:03:21.346Z,19.43
2022-10-03T16:08:36.597Z,19.44
2022-10-03T16:13:51.570Z,19.42
2022-10-03T16:19:06.550Z,19.43
2022-10-03T16:24:21.676Z,19.43
2022-10-03T16:29:36.593Z,19.43
2022-10-03T16:34:51.549Z,19.44
2022-10-03T16:40:06.342Z,19.44
2022-10-03T16:45:21.592Z,19.43
2022-10-03T16:50:38.856Z,19.45
2022-10-03T16:55:59.903Z,19.44
2022-10-03T17:01:27.016Z,19.44
2022-10-03T17:06:42.886Z,19.45
2022-10-03T17:11:58.608Z,19.45
2022-10-03T17:17:13.870Z,19.44
2022-10-03T17:22:29.882Z,19.43
2022-10-03T17:27:45.922Z,19.43
2022-10-03T17:33:01.649Z,19.43
2022-10-03T17:38:44.504Z,19.43
2022-10-03T17:44:29.922Z,19.42
2022-10-03T17:49:45.606Z,19.42
2022-10-03T17:55:00.624Z,19.41
2022-10-03T18:00:15.559Z,19.41
2022-10-03T18:05:30.635Z,19.41
2022-10-03T18:10:45.368Z,19.41
2022-10-03T18:16:00.615Z,19.40
2022-10-03T18:21:15.546Z,19.40
2022-10-03T18:26:30.874Z,19.39
2022-10-03T18:31:46.710Z,19.39
2022-10-03T18:37:01.618Z,19.39
2022-10-03T18:42:16.334Z,19.39
2022-10-03T18:47:31.576Z,19.39
2022-10-03T18:52:46.571Z,19.39
2022-10-03T18:58:01.569Z,19.39
2022-10-03T19:03:16.607Z,19.39
2022-10-03T19:08:31.548Z,19.38
2022-10-03T19:13:49.463Z,19.38
2022-10-03T19:19:08.882Z,19.38
2022-10-03T19:24:46.146Z,19.47
2022-10-03T19:29:59.337Z,19.60
2022-10-03T19:35:14.879Z,19.71
2022-10-03T19:40:30.933Z,19.76
2022-10-03T19:45:46.599Z,19.82
2022-10-03T19:51:01.568Z,19.87
2022-10-03T19:56:16.981Z,19.92
2022-10-03T20:01:32.600Z,19.96
2022-10-03T20:06:47.619Z,20.00
2022-10-03T20:12:02.577Z,20.02
2022-10-03T20:17:17.573Z,20.06
2022-10-03T20:22:32.336Z,20.09
2022-10-03T20:27:47.565Z,20.11
2022-10-03T20:33:02.586Z,20.14
2022-10-03T20:38:17.857Z,20.16
2022-10-03T20:43:35.668Z,20.19
2022-10-03T20:48:54.618Z,20.19
2022-10-03T20:54:09.660Z,20.21
2022-10-03T20:59:24.863Z,20.23
2022-10-03T21:04:40.566Z,20.25
2022-10-03T21:09:55.565Z,20.25
2022-10-03T21:15:10.541Z,20.26
2022-10-03T21:20:25.588Z,20.28
2022-10-03T21:25:42.181Z,20.28
2022-10-03T21:30:59.611Z,20.30
2022-10-03T21:36:14.568Z,20.31
2022-10-03T21:41:29.618Z,20.31
2022-10-03T21:46:44.620Z,20.33
2022-10-03T21:51:59.651Z,20.36
2022-10-03T21:57:14.591Z,20.38
2022-10-03T22:02:30.034Z,20.37
2022-10-03T22:07:45.600Z,20.35
2022-10-03T22:13:00.927Z,20.37
2022-10-03T22:18:16.417Z,20.40
2022-10-03T22:23:31.848Z,20.39
2022-10-03T22:28:47.917Z,20.38
2022-10-03T22:34:03.614Z,20.38
2022-10-03T22:39:18.597Z,20.37
2022-10-03T22:44:33.575Z,20.36
2022-10-03T22:49:49.889Z,20.35
2022-10-03T22:55:06.028Z,20.35
2022-10-03T23:00:21.581Z,20.35
2022-10-03T23:05:36.812Z,20.36
2022-10-03T23:10:52.582Z,20.36
2022-10-03T23:16:07.638Z,20.35
2022-10-03T23:21:23.610Z,20.36
2022-10-03T23:26:38.791Z,20.35
2022-10-03T23:31:54.915Z,20.36
2022-10-03T23:37:10.947Z,20.37
2022-10-03T23:42:26.594Z,20.36
2022-10-03T23:47:41.887Z,20.38
2022-10-03T23:52:57.571Z,20.37
2022-10-03T23:58:12.613Z,20.37
